createdAt,value
2019-06-20T00:00:43.878Z,20.80
2019-06-20T00:03:17.900Z,20.80
2019-06-20T00:05:52.189Z,20.80
2019-06-20T00:08:26.376Z,20.80
2019-06-20T00:11:00.446Z,20.80
2019-06-20T00:13:34.487Z,20.70
2019-06-20T00:16:08.731Z,20.80
2019-06-20T00:18:42.621Z,20.70
2019-06-20T00:21:16.556Z,20.80
2019-06-20T00:23:50.896Z,20.70
2019-06-20T00:26:25.249Z,20.70
2019-06-20T00:28:59.549Z,20.70
2019-06-20T00:31:33.666Z,20.70
2019-06-20T00:34:08.050Z,20.70
2019-06-20T00:36:42.081Z,20.80
2019-06-20T00:39:15.945Z,20.70
2019-06-20T00:41:50.135Z,20.70
2019-06-20T00:44:24.281Z,20.80
2019-06-20T00:46:58.444Z,20.80
2019-06-20T00:49:32.347Z,20.70
2019-06-20T00:52:06.293Z,20.70
2019-06-20T00:54:40.685Z,20.60
2019-06-20T00:57:14.998Z,20.60
2019-06-20T00:59:49.065Z,20.60
2019-06-20T01:02:23.163Z,20.60
2019-06-20T01:04:57.062Z,20.60
2019-06-20T01:07:31.283Z,20.60
2019-06-20T01:10:07.061Z,20.60
2019-06-20T01:12:41.476Z,20.60
2019-06-20T01:15:15.852Z,20.60
2019-06-20T01:17:49.874Z,20.50
2019-06-20T01:20:24.146Z,20.50
2019-06-20T01:22:58.322Z,20.50
2019-06-20T01:25:43.207Z,20.40
2019-06-20T01:28:17.321Z,20.40
2019-06-20T01:30:51.640Z,20.40
2019-06-20T01:33:25.792Z,20.40
2019-06-20T01:35:59.929Z,20.30
2019-06-20T01:38:33.836Z,20.30
2019-06-20T01:41:07.784Z,20.30
2019-06-20T01:43:50.460Z,20.30
2019-06-20T01:46:18.181Z,20.30
2019-06-20T01:48:52.281Z,20.30
2019-06-20T01:51:26.453Z,20.30
2019-06-20T01:54:00.575Z,20.30
2019-06-20T01:56:34.991Z,20.30
2019-06-20T01:59:09.095Z,20.30
2019-06-20T02:01:43.489Z,20.30
2019-06-20T02:04:17.664Z,20.30
2019-06-20T02:06:52.002Z,20.30
2019-06-20T02:09:25.672Z,20.40
2019-06-20T02:11:59.727Z,20.40
2019-06-20T02:14:33.749Z,20.40
2019-06-20T02:17:07.927Z,20.50
2019-06-20T02:19:42.053Z,20.50
2019-06-20T02:22:16.371Z,20.40
2019-06-20T02:24:50.287Z,20.40
2019-06-20T02:27:24.273Z,20.50
2019-06-20T02:29:58.384Z,20.50
2019-06-20T02:32:32.308Z,20.50
2019-06-20T02:35:06.468Z,20.50
2019-06-20T02:37:40.581Z,20.50
2019-06-20T02:40:15.000Z,20.50
2019-06-20T02:42:49.174Z,20.50
2019-06-20T02:45:23.480Z,20.50
2019-06-20T02:47:57.501Z,20.50
2019-06-20T02:50:31.795Z,20.50
2019-06-20T02:53:05.909Z,20.50
2019-06-20T02:55:40.357Z,20.50
2019-06-20T02:58:14.325Z,20.50
2019-06-20T03:00:54.732Z,20.50
2019-06-20T03:03:29.620Z,20.50
2019-06-20T03:06:04.319Z,20.50
2019-06-20T03:08:38.295Z,20.50
2019-06-20T03:11:12.120Z,20.50
2019-06-20T03:13:45.875Z,20.50
2019-06-20T03:16:19.965Z,20.50
2019-06-20T03:18:54.231Z,20.50
2019-06-20T03:21:28.518Z,20.50
2019-06-20T03:24:02.461Z,20.50
2019-06-20T03:26:36.472Z,20.50
2019-06-20T03:29:10.597Z,20.50
2019-06-20T03:32:03.420Z,20.50
2019-06-20T03:34:37.426Z,20.50
2019-06-20T03:37:11.371Z,20.60
2019-06-20T03:39:45.149Z,20.60
2019-06-20T03:42:19.120Z,20.60
2019-06-20T03:45:02.262Z,20.60
2019-06-20T03:47:28.997Z,20.60
2019-06-20T03:50:03.256Z,20.60
2019-06-20T03:52:37.362Z,20.70
2019-06-20T03:55:11.688Z,20.70
2019-06-20T03:57:45.620Z,20.70
2019-06-20T04:00:22.643Z,20.80
2019-06-20T04:02:56.922Z,20.80
2019-06-20T04:05:31.419Z,20.90
2019-06-20T04:08:05.157Z,20.90
2019-06-20T04:10:38.948Z,20.90
2019-06-20T04:13:13.028Z,20.90
2019-06-20T04:15:47.011Z,20.90
2019-06-20T04:18:21.252Z,20.90
2019-06-20T04:20:55.404Z,20.90
2019-06-20T04:23:29.421Z,21.00
2019-06-20T04:26:03.351Z,21.00
2019-06-20T04:28:37.188Z,21.00
2019-06-20T04:31:11.401Z,21.10
2019-06-20T04:33:45.312Z,21.10
2019-06-20T04:36:19.420Z,21.10
2019-06-20T04:38:53.492Z,21.10
2019-06-20T04:41:27.330Z,21.10
2019-06-20T04:44:01.521Z,21.10
2019-06-20T04:46:35.657Z,21.10
2019-06-20T04:49:09.685Z,21.10
2019-06-20T04:51:43.498Z,21.10
2019-06-20T04:54:17.353Z,21.10
2019-06-20T04:56:51.527Z,21.10
2019-06-20T04:59:25.457Z,21.10
2019-06-20T05:01:59.240Z,21.10
2019-06-20T05:04:33.253Z,21.00
2019-06-20T05:07:15.165Z,21.10
2019-06-20T05:09:49.268Z,21.10
2019-06-20T05:12:23.292Z,21.10
2019-06-20T05:14:57.578Z,21.10
2019-06-20T05:17:31.500Z,21.10
2019-06-20T05:20:06.194Z,21.10
2019-06-20T05:22:40.034Z,21.10
2019-06-20T05:25:14.560Z,21.20
2019-06-20T05:27:48.570Z,21.20
2019-06-20T05:30:22.685Z,21.20
2019-06-20T05:32:56.574Z,21.30
2019-06-20T05:35:30.580Z,21.30
2019-06-20T05:38:04.730Z,21.30
2019-06-20T05:40:38.799Z,21.30
2019-06-20T05:43:12.853Z,21.40
2019-06-20T05:45:48.769Z,21.40
2019-06-20T05:48:23.019Z,21.40
2019-06-20T05:50:57.186Z,21.40
2019-06-20T05:53:31.005Z,21.40
2019-06-20T05:56:04.931Z,21.40
2019-06-20T05:58:38.829Z,21.30
2019-06-20T06:01:12.973Z,21.20
2019-06-20T06:03:47.693Z,21.10
2019-06-20T06:06:21.735Z,21.00
2019-06-20T06:08:55.987Z,21.00
2019-06-20T06:11:30.105Z,21.00
2019-06-20T06:14:04.104Z,20.90
2019-06-20T06:16:38.018Z,20.90
2019-06-20T06:19:12.211Z,20.80
2019-06-20T06:21:46.143Z,20.80
2019-06-20T06:24:20.557Z,20.70
2019-06-20T06:26:59.313Z,20.70
2019-06-20T06:29:29.813Z,20.70
2019-06-20T06:32:03.910Z,20.60
2019-06-20T06:34:38.052Z,20.70
2019-06-20T06:37:12.245Z,20.70
2019-06-20T06:39:46.279Z,20.70
2019-06-20T06:42:20.586Z,20.70
2019-06-20T06:44:54.771Z,20.80
2019-06-20T06:47:28.709Z,20.90
2019-06-20T06:50:02.856Z,20.90
2019-06-20T06:52:36.919Z,21.00
2019-06-20T06:55:10.973Z,21.00
2019-06-20T06:57:44.790Z,21.10
2019-06-20T07:00:19.130Z,21.10
2019-06-20T07:02:52.972Z,21.20
2019-06-20T07:05:27.110Z,21.20
2019-06-20T07:08:01.112Z,21.20
2019-06-20T07:10:35.141Z,21.20
2019-06-20T07:13:09.200Z,21.20
2019-06-20T07:15:43.346Z,21.20
2019-06-20T07:18:17.560Z,21.20
2019-06-20T07:20:51.482Z,21.20
2019-06-20T07:23:25.503Z,21.20
2019-06-20T07:25:59.569Z,21.30
2019-06-20T07:28:33.376Z,21.30
2019-06-20T07:31:07.627Z,21.40
2019-06-20T07:33:42.027Z,21.40
2019-06-20T07:36:19.239Z,21.50
2019-06-20T07:38:53.334Z,21.50
2019-06-20T07:41:27.363Z,21.50
2019-06-20T07:44:01.295Z,21.60
2019-06-20T07:46:35.288Z,21.60
2019-06-20T07:49:09.450Z,21.60
2019-06-20T07:51:43.424Z,21.60
2019-06-20T07:54:17.284Z,21.70
2019-06-20T07:56:54.870Z,21.70
2019-06-20T07:59:28.904Z,21.80
2019-06-20T08:02:02.995Z,21.80
2019-06-20T08:04:37.243Z,21.80
2019-06-20T08:07:11.323Z,21.80
2019-06-20T08:09:45.634Z,21.80
2019-06-20T08:12:19.967Z,21.80
2019-06-20T08:14:55.149Z,21.80
2019-06-20T08:17:35.312Z,21.80
2019-06-20T08:20:06.352Z,21.80
2019-06-20T08:22:40.646Z,21.70
2019-06-20T08:25:15.599Z,21.60
2019-06-20T08:27:49.783Z,21.60
2019-06-20T08:30:27.843Z,21.50
2019-06-20T08:33:05.427Z,21.50
2019-06-20T08:35:37.572Z,21.50
2019-06-20T08:38:11.661Z,21.60
2019-06-20T08:40:46.026Z,21.70
2019-06-20T08:43:20.061Z,21.80
2019-06-20T08:45:56.119Z,21.80
2019-06-20T08:48:29.854Z,21.90
2019-06-20T08:51:04.566Z,21.90
2019-06-20T08:53:38.993Z,21.90
2019-06-20T08:56:13.100Z,22.00
2019-06-20T08:58:47.107Z,22.10
2019-06-20T09:01:21.287Z,22.20
2019-06-20T09:03:56.726Z,22.40
2019-06-20T09:06:31.142Z,22.60
2019-06-20T09:09:07.869Z,22.80
2019-06-20T09:11:42.152Z,22.90
2019-06-20T09:14:16.309Z,23.10
2019-06-20T09:16:50.173Z,23.30
2019-06-20T09:19:24.204Z,23.50
2019-06-20T09:21:58.070Z,23.80
2019-06-20T09:24:32.153Z,24.00
2019-06-20T09:27:06.287Z,24.30
2019-06-20T09:29:42.081Z,24.70
2019-06-20T09:32:34.625Z,24.90
2019-06-20T09:35:09.083Z,25.10
2019-06-20T09:37:43.033Z,25.40
2019-06-20T09:40:17.962Z,25.40
2019-06-20T09:42:52.892Z,25.50
2019-06-20T09:45:27.787Z,25.60
2019-06-20T09:48:02.717Z,25.60
2019-06-20T09:50:37.429Z,25.60
2019-06-20T09:53:11.437Z,25.50
2019-06-20T09:55:45.612Z,25.40
2019-06-20T09:58:19.690Z,25.20
2019-06-20T10:00:55.001Z,25.10
2019-06-20T10:03:29.589Z,24.90
2019-06-20T10:06:13.296Z,24.70
2019-06-20T10:08:39.271Z,24.50
2019-06-20T10:11:13.503Z,24.30
2019-06-20T10:13:48.161Z,24.10
2019-06-20T10:16:22.367Z,23.90
2019-06-20T10:18:58.649Z,23.70
2019-06-20T10:21:33.147Z,23.60
2019-06-20T10:24:07.498Z,23.40
2019-06-20T10:26:41.489Z,23.30
2019-06-20T10:29:15.279Z,23.20
2019-06-20T10:31:49.290Z,23.10
2019-06-20T10:34:23.347Z,23.10
2019-06-20T10:36:57.450Z,23.00
2019-06-20T10:39:31.517Z,23.00
2019-06-20T10:42:05.728Z,22.90
2019-06-20T10:44:39.798Z,22.90
2019-06-20T10:47:13.980Z,22.90
2019-06-20T10:49:50.293Z,22.90
2019-06-20T10:52:25.310Z,22.90
2019-06-20T10:54:59.414Z,22.90
2019-06-20T10:57:33.402Z,22.90
2019-06-20T11:00:08.654Z,23.00
2019-06-20T11:02:43.409Z,23.00
2019-06-20T11:05:18.106Z,22.90
2019-06-20T11:07:52.108Z,22.90
2019-06-20T11:10:26.484Z,22.90
2019-06-20T11:13:00.305Z,22.90
2019-06-20T11:15:34.387Z,22.80
2019-06-20T11:18:08.292Z,22.80
2019-06-20T11:20:42.743Z,22.80
2019-06-20T11:23:16.876Z,22.80
2019-06-20T11:25:50.892Z,22.90
2019-06-20T11:28:24.733Z,22.90
2019-06-20T11:31:00.672Z,23.10
2019-06-20T11:33:36.467Z,23.30
2019-06-20T11:36:10.762Z,23.50
2019-06-20T11:38:44.644Z,23.80
2019-06-20T11:41:18.750Z,24.10
2019-06-20T11:43:52.634Z,24.30
2019-06-20T11:46:26.561Z,24.60
2019-06-20T11:49:00.992Z,24.80
2019-06-20T11:51:35.947Z,25.10
2019-06-20T11:54:10.219Z,25.30
2019-06-20T11:56:44.235Z,25.40
2019-06-20T11:59:18.421Z,25.50
2019-06-20T12:01:52.370Z,25.50
2019-06-20T12:04:26.146Z,25.40
2019-06-20T12:06:59.962Z,25.40
2019-06-20T12:09:36.462Z,25.40
2019-06-20T12:12:09.507Z,25.30
2019-06-20T12:14:44.287Z,25.20
2019-06-20T12:17:19.043Z,25.10
2019-06-20T12:19:53.099Z,24.90
2019-06-20T12:22:27.237Z,24.70
2019-06-20T12:25:04.293Z,24.60
2019-06-20T12:27:38.823Z,24.40
2019-06-20T12:30:15.096Z,24.20
2019-06-20T12:32:49.524Z,24.10
2019-06-20T12:35:23.689Z,23.90
2019-06-20T12:37:58.039Z,23.80
2019-06-20T12:40:31.922Z,23.70
2019-06-20T12:43:06.150Z,23.60
2019-06-20T12:45:41.311Z,23.60
2019-06-20T12:48:15.942Z,23.60
2019-06-20T12:50:49.938Z,23.50
2019-06-20T12:53:23.889Z,23.50
2019-06-20T12:55:57.987Z,23.50
2019-06-20T12:58:32.064Z,23.50
2019-06-20T13:01:07.101Z,23.60
2019-06-20T13:03:42.587Z,23.60
2019-06-20T13:06:16.955Z,23.60
2019-06-20T13:08:50.906Z,23.70
2019-06-20T13:11:25.126Z,23.70
2019-06-20T13:13:59.115Z,23.70
2019-06-20T13:16:33.114Z,23.70
2019-06-20T13:19:06.742Z,23.60
2019-06-20T13:21:42.008Z,23.60
2019-06-20T13:24:16.466Z,23.50
2019-06-20T13:26:50.748Z,23.50
2019-06-20T13:29:24.686Z,23.50
2019-06-20T13:32:04.349Z,23.40
2019-06-20T13:34:33.684Z,23.50
2019-06-20T13:37:07.454Z,23.50
2019-06-20T13:39:41.707Z,23.60
2019-06-20T13:42:16.984Z,23.70
2019-06-20T13:44:51.037Z,23.80
2019-06-20T13:47:25.026Z,24.00
2019-06-20T13:49:58.996Z,24.20
2019-06-20T13:52:34.051Z,24.40
2019-06-20T13:55:08.521Z,24.60
2019-06-20T13:57:42.990Z,24.70
2019-06-20T14:00:18.484Z,24.90
2019-06-20T14:02:52.859Z,25.00
2019-06-20T14:05:26.693Z,25.10
2019-06-20T14:08:00.695Z,25.30
2019-06-20T14:10:34.641Z,25.40
2019-06-20T14:13:18.718Z,25.60
2019-06-20T14:15:44.918Z,25.70
2019-06-20T14:18:19.810Z,25.90
2019-06-20T14:20:53.595Z,26.10
2019-06-20T14:23:27.651Z,26.20
2019-06-20T14:26:01.776Z,26.40
2019-06-20T14:28:35.722Z,26.50
2019-06-20T14:31:09.809Z,26.70
2019-06-20T14:33:44.271Z,26.70
2019-06-20T14:36:18.319Z,26.80
2019-06-20T14:38:53.727Z,26.90
2019-06-20T14:41:27.739Z,26.90
2019-06-20T14:44:01.890Z,26.90
2019-06-20T14:46:35.771Z,26.90
2019-06-20T14:49:09.875Z,26.80
2019-06-20T14:51:44.967Z,26.70
2019-06-20T14:54:19.817Z,26.50
2019-06-20T14:56:58.152Z,26.40
2019-06-20T14:59:31.557Z,26.30
2019-06-20T15:02:06.661Z,26.10
2019-06-20T15:04:40.371Z,26.00
2019-06-20T15:07:14.136Z,25.80
2019-06-20T15:09:49.577Z,25.80
2019-06-20T15:12:23.813Z,25.70
2019-06-20T15:14:57.570Z,25.70
2019-06-20T15:17:31.486Z,25.70
2019-06-20T15:20:05.625Z,25.70
2019-06-20T15:22:39.623Z,25.80
2019-06-20T15:25:13.446Z,25.80
2019-06-20T15:27:49.745Z,25.80
2019-06-20T15:30:23.276Z,25.80
2019-06-20T15:33:07.655Z,25.80
2019-06-20T15:35:32.709Z,25.80
2019-06-20T15:38:06.376Z,25.80
2019-06-20T15:40:40.437Z,25.90
2019-06-20T15:43:14.325Z,25.80
2019-06-20T15:45:49.888Z,25.80
2019-06-20T15:48:23.895Z,25.80
2019-06-20T15:50:57.792Z,25.80
2019-06-20T15:53:31.752Z,25.80
2019-06-20T15:56:05.594Z,25.70
2019-06-20T15:58:39.425Z,25.70
2019-06-20T16:01:13.744Z,25.70
2019-06-20T16:03:47.895Z,25.60
2019-06-20T16:06:21.939Z,25.50
2019-06-20T16:08:55.976Z,25.40
2019-06-20T16:11:29.901Z,25.30
2019-06-20T16:14:03.935Z,25.20
2019-06-20T16:16:37.594Z,25.20
2019-06-20T16:19:11.355Z,25.10
2019-06-20T16:21:45.238Z,25.00
2019-06-20T16:24:18.852Z,25.00
2019-06-20T16:26:52.505Z,25.00
2019-06-20T16:29:26.424Z,25.10
2019-06-20T16:32:00.382Z,25.10
2019-06-20T16:34:34.470Z,25.20
2019-06-20T16:37:10.400Z,25.20
2019-06-20T16:39:43.716Z,25.20
2019-06-20T16:42:17.415Z,25.30
2019-06-20T16:44:51.305Z,25.30
2019-06-20T16:47:25.378Z,25.30
2019-06-20T16:49:59.332Z,25.30
2019-06-20T16:52:33.318Z,25.20
2019-06-20T16:55:07.501Z,25.20
2019-06-20T16:57:41.592Z,25.20
2019-06-20T17:00:15.912Z,25.20
2019-06-20T17:02:50.241Z,25.10
2019-06-20T17:05:24.132Z,25.10
2019-06-20T17:07:58.113Z,25.00
2019-06-20T17:10:32.159Z,25.00
2019-06-20T17:13:06.146Z,25.00
2019-06-20T17:15:40.073Z,24.90
2019-06-20T17:18:13.899Z,24.90
2019-06-20T17:20:47.921Z,24.90
2019-06-20T17:23:21.780Z,24.80
2019-06-20T17:25:55.810Z,24.80
2019-06-20T17:28:29.813Z,24.70
2019-06-20T17:31:03.974Z,24.70
2019-06-20T17:33:38.029Z,24.70
2019-06-20T17:36:18.362Z,24.60
2019-06-20T17:38:47.268Z,24.50
2019-06-20T17:41:21.286Z,24.50
2019-06-20T17:43:55.206Z,24.50
2019-06-20T17:46:29.352Z,24.50
2019-06-20T17:49:03.669Z,24.50
2019-06-20T17:51:37.454Z,24.50
2019-06-20T17:54:11.166Z,24.40
2019-06-20T17:56:44.966Z,24.40
2019-06-20T17:59:22.423Z,24.40
2019-06-20T18:01:54.315Z,24.30
2019-06-20T18:04:28.233Z,24.30
2019-06-20T18:07:01.919Z,24.30
2019-06-20T18:09:37.052Z,24.20
2019-06-20T18:12:11.871Z,24.10
2019-06-20T18:14:53.491Z,24.10
2019-06-20T18:17:27.193Z,24.10
2019-06-20T18:20:08.119Z,24.00
2019-06-20T18:22:42.310Z,24.00
2019-06-20T18:25:17.285Z,24.00
2019-06-20T18:27:51.283Z,23.90
2019-06-20T18:30:35.251Z,23.90
2019-06-20T18:33:10.603Z,23.80
2019-06-20T18:35:44.640Z,23.70
2019-06-20T18:38:19.170Z,23.60
2019-06-20T18:40:52.833Z,23.50
2019-06-20T18:43:26.925Z,23.40
2019-06-20T18:46:02.170Z,23.20
2019-06-20T18:48:36.247Z,23.20
2019-06-20T18:51:10.103Z,23.10
2019-06-20T18:53:44.183Z,23.10
2019-06-20T18:56:18.032Z,23.00
2019-06-20T18:58:51.853Z,22.90
2019-06-20T19:01:26.248Z,22.90
2019-06-20T19:04:00.508Z,22.90
2019-06-20T19:06:36.273Z,22.90
2019-06-20T19:09:21.936Z,22.80
2019-06-20T19:11:56.429Z,22.80
2019-06-20T19:14:30.227Z,22.70
2019-06-20T19:17:04.414Z,22.60
2019-06-20T19:19:38.361Z,22.50
2019-06-20T19:22:12.294Z,22.40
2019-06-20T19:24:45.910Z,22.40
2019-06-20T19:27:19.651Z,22.30
2019-06-20T19:29:53.461Z,22.20
2019-06-20T19:32:27.717Z,22.10
2019-06-20T19:35:02.799Z,22.00
2019-06-20T19:37:36.787Z,21.90
2019-06-20T19:40:12.288Z,21.90
2019-06-20T19:42:46.287Z,21.80
2019-06-20T19:45:20.484Z,21.70
2019-06-20T19:47:54.523Z,21.70
2019-06-20T19:50:28.673Z,21.60
2019-06-20T19:53:04.941Z,21.50
2019-06-20T19:55:40.129Z,21.40
2019-06-20T19:58:15.013Z,21.40
2019-06-20T20:00:49.560Z,21.30
2019-06-20T20:03:23.577Z,21.20
2019-06-20T20:05:58.528Z,21.20
2019-06-20T20:08:34.235Z,21.10
2019-06-20T20:11:09.516Z,21.00
2019-06-20T20:13:43.383Z,20.90
2019-06-20T20:16:17.382Z,20.90
2019-06-20T20:18:50.993Z,20.80
2019-06-20T20:21:24.914Z,20.80
2019-06-20T20:23:59.272Z,20.70
2019-06-20T20:26:33.175Z,20.70
2019-06-20T20:29:07.192Z,20.60
2019-06-20T20:31:40.965Z,20.50
2019-06-20T20:34:15.487Z,20.50
2019-06-20T20:36:49.221Z,20.40
2019-06-20T20:39:23.354Z,20.40
2019-06-20T20:41:58.170Z,20.30
2019-06-20T20:44:32.764Z,20.20
2019-06-20T20:47:10.531Z,20.20
2019-06-20T20:49:46.910Z,20.10
2019-06-20T20:52:21.338Z,20.10
2019-06-20T20:54:55.597Z,20.00
2019-06-20T20:57:29.791Z,20.00
2019-06-20T21:00:04.334Z,19.90
2019-06-20T21:02:38.328Z,19.80
2019-06-20T21:05:19.770Z,19.80
2019-06-20T21:07:54.030Z,19.70
2019-06-20T21:10:28.283Z,19.70
2019-06-20T21:13:02.454Z,19.60
2019-06-20T21:15:36.386Z,19.60
2019-06-20T21:18:10.564Z,19.50
2019-06-20T21:20:44.700Z,19.50
2019-06-20T21:23:18.430Z,19.40
2019-06-20T21:25:52.480Z,19.40
2019-06-20T21:28:26.440Z,19.30
2019-06-20T21:31:00.195Z,19.30
2019-06-20T21:33:34.258Z,19.20
2019-06-20T21:36:09.219Z,19.20
2019-06-20T21:38:43.572Z,19.10
2019-06-20T21:41:17.531Z,19.10
2019-06-20T21:43:51.674Z,19.10
2019-06-20T21:46:25.702Z,19.10
2019-06-20T21:48:59.853Z,19.00
2019-06-20T21:51:33.983Z,18.90
2019-06-20T21:54:08.723Z,18.90
2019-06-20T21:56:42.914Z,18.90
2019-06-20T21:59:17.084Z,18.80
2019-06-20T22:01:51.094Z,18.70
2019-06-20T22:04:25.249Z,18.60
2019-06-20T22:06:59.161Z,18.60
2019-06-20T22:09:33.382Z,18.50
2019-06-20T22:12:07.541Z,18.40
2019-06-20T22:14:41.636Z,18.40
2019-06-20T22:17:15.675Z,18.40
2019-06-20T22:19:49.843Z,18.40
2019-06-20T22:22:23.815Z,18.30
2019-06-20T22:24:58.007Z,18.20
2019-06-20T22:27:32.195Z,18.30
2019-06-20T22:30:08.313Z,18.20
2019-06-20T22:32:42.270Z,18.20
2019-06-20T22:35:16.559Z,18.20
2019-06-20T22:37:50.447Z,18.10
2019-06-20T22:40:24.707Z,18.10
2019-06-20T22:42:58.780Z,18.10
2019-06-20T22:45:33.152Z,18.00
2019-06-20T22:48:07.747Z,17.90
2019-06-20T22:50:42.282Z,17.80
2019-06-20T22:53:16.548Z,17.70
2019-06-20T22:55:50.612Z,17.60
2019-06-20T22:58:24.833Z,17.60
2019-06-20T23:00:58.807Z,17.50
2019-06-20T23:03:36.426Z,17.50
2019-06-20T23:06:10.416Z,17.50
2019-06-20T23:08:44.523Z,17.50
2019-06-20T23:11:18.442Z,17.40
2019-06-20T23:13:52.359Z,17.50
2019-06-20T23:16:26.237Z,17.40
2019-06-20T23:18:59.945Z,17.40
2019-06-20T23:21:34.272Z,17.40
2019-06-20T23:24:08.418Z,17.30
2019-06-20T23:26:42.177Z,17.20
2019-06-20T23:29:16.103Z,17.10
2019-06-20T23:31:50.793Z,17.10
2019-06-20T23:34:24.969Z,17.00
2019-06-20T23:37:12.106Z,17.00
2019-06-20T23:39:34.783Z,16.90
2019-06-20T23:42:08.825Z,16.90
2019-06-20T23:44:43.207Z,16.80
2019-06-20T23:47:17.410Z,16.80
2019-06-20T23:49:51.730Z,16.70
2019-06-20T23:52:27.236Z,16.70
2019-06-20T23:55:01.587Z,16.70
2019-06-20T23:57:35.538Z,16.60
